sensor_id;sensor_type;location;lat;lon;timestamp;pressure;altitude;pressure_sealevel;temperature;humidity
21869;BME280;11099;41.564;23.296;2022-12-07T00:13:09;97764.22;;;8.96;100.00
21869;BME280;11099;41.564;23.296;2022-12-07T00:15:43;97817.38;;;9.10;100.00
21869;BME280;11099;41.564;23.296;2022-12-07T00:18:16;97764.50;;;8.76;100.00
21869;BME280;11099;41.564;23.296;2022-12-07T00:20:44;97767.44;;;8.93;100.00
21869;BME280;11099;41.564;23.296;2022-12-07T00:23:17;97784.84;;;9.00;100.00
21869;BME280;11099;41.564;23.296;2022-12-07T00:25:49;97786.91;;;9.21;100.00
21869;BME280;11099;41.564;23.296;2022-12-07T00:28:16;97812.78;;;8.97;100.00
21869;BME280;11099;41.564;23.296;2022-12-07T00:30:42;97808.09;;;8.89;100.00
21869;BME280;11099;41.564;23.296;2022-12-07T00:33:15;97768.59;;;8.87;100.00
21869;BME280;11099;41.564;23.296;2022-12-07T00:35:58;97718.50;;;8.62;100.00
21869;BME280;11099;41.564;23.296;2022-12-07T00:38:36;97696.75;;;8.46;100.00
21869;BME280;11099;41.564;23.296;2022-12-07T00:41:31;97779.53;;;8.62;100.00
21869;BME280;11099;41.564;23.296;2022-12-07T00:44:01;97803.88;;;8.88;100.00
21869;BME280;11099;41.564;23.296;2022-12-07T00:46:33;97765.44;;;8.66;100.00
21869;BME280;11099;41.564;23.296;2022-12-07T00:49:02;97807.69;;;9.01;100.00
21869;BME280;11099;41.564;23.296;2022-12-07T00:51:33;97796.72;;;9.07;100.00
21869;BME280;11099;41.564;23.296;2022-12-07T00:54:41;97794.31;;;9.24;100.00
21869;BME280;11099;41.564;23.296;2022-12-07T01:02:23;97795.56;;;9.13;100.00
21869;BME280;11099;41.564;23.296;2022-12-07T01:05:00;97737.53;;;8.69;100.00
21869;BME280;11099;41.564;23.296;2022-12-07T01:07:31;97745.75;;;9.05;100.00
21869;BME280;11099;41.564;23.296;2022-12-07T01:10:05;97779.94;;;9.26;100.00
21869;BME280;11099;41.564;23.296;2022-12-07T01:54:02;97693.34;;;9.11;100.00
21869;BME280;11099;41.564;23.296;2022-12-07T01:56:37;97660.69;;;9.10;100.00
21869;BME280;11099;41.564;23.296;2022-12-07T03:12:12;97718.28;;;8.39;100.00
21869;BME280;11099;41.564;23.296;2022-12-07T03:15:06;97717.19;;;8.22;100.00
21869;BME280;11099;41.564;23.296;2022-12-07T03:17:41;97672.09;;;7.79;100.00
21869;BME280;11099;41.564;23.296;2022-12-07T03:20:22;97707.66;;;8.21;100.00
21869;BME280;11099;41.564;23.296;2022-12-07T03:22:54;97655.13;;;7.80;100.00
21869;BME280;11099;41.564;23.296;2022-12-07T03:25:22;97636.13;;;7.73;100.00
21869;BME280;11099;41.564;23.296;2022-12-07T03:28:03;97710.97;;;8.31;100.00
21869;BME280;11099;41.564;23.296;2022-12-07T03:33:20;97720.16;;;8.39;100.00
21869;BME280;11099;41.564;23.296;2022-12-07T03:43:44;97661.59;;;8.54;100.00
21869;BME280;11099;41.564;23.296;2022-12-07T03:49:07;97638.94;;;8.43;100.00
21869;BME280;11099;41.564;23.296;2022-12-07T03:54:58;97698.00;;;8.86;100.00
21869;BME280;11099;41.564;23.296;2022-12-07T03:57:32;97633.75;;;8.33;100.00
21869;BME280;11099;41.564;23.296;2022-12-07T04:00:10;97708.47;;;8.78;100.00
21869;BME280;11099;41.564;23.296;2022-12-07T04:03:00;97704.59;;;8.70;100.00
21869;BME280;11099;41.564;23.296;2022-12-07T04:08:09;97632.19;;;8.32;100.00
21869;BME280;11099;41.564;23.296;2022-12-07T04:10:39;97695.59;;;8.09;100.00
21869;BME280;11099;41.564;23.296;2022-12-07T04:13:07;97622.81;;;7.78;100.00
21869;BME280;11099;41.564;23.296;2022-12-07T04:15:35;97599.19;;;7.38;100.00
21869;BME280;11099;41.564;23.296;2022-12-07T04:18:06;97630.22;;;8.00;100.00
21869;BME280;11099;41.564;23.296;2022-12-07T04:20:36;97701.88;;;8.37;100.00
21869;BME280;11099;41.564;23.296;2022-12-07T04:23:18;97653.28;;;8.42;100.00
21869;BME280;11099;41.564;23.296;2022-12-07T04:25:51;97700.59;;;8.54;100.00
21869;BME280;11099;41.564;23.296;2022-12-07T04:28:25;97677.66;;;8.44;100.00
21869;BME280;11099;41.564;23.296;2022-12-07T04:30:57;97609.88;;;7.95;100.00
21869;BME280;11099;41.564;23.296;2022-12-07T04:33:26;97695.56;;;7.90;100.00
21869;BME280;11099;41.564;23.296;2022-12-07T04:35:58;97599.75;;;7.35;100.00
21869;BME280;11099;41.564;23.296;2022-12-07T04:38:30;97697.47;;;8.28;100.00
21869;BME280;11099;41.564;23.296;2022-12-07T04:41:08;97628.47;;;8.14;100.00
21869;BME280;11099;41.564;23.296;2022-12-07T04:46:11;97684.81;;;8.25;100.00
21869;BME280;11099;41.564;23.296;2022-12-07T04:48:42;97592.00;;;7.63;100.00
21869;BME280;11099;41.564;23.296;2022-12-07T04:51:11;97650.09;;;8.21;100.00
21869;BME280;11099;41.564;23.296;2022-12-07T04:53:40;97681.16;;;8.58;100.00
21869;BME280;11099;41.564;23.296;2022-12-07T04:56:16;97679.44;;;8.49;100.00
21869;BME280;11099;41.564;23.296;2022-12-07T04:58:47;97630.81;;;8.34;100.00
21869;BME280;11099;41.564;23.296;2022-12-07T05:47:53;97616.91;;;8.24;100.00
21869;BME280;11099;41.564;23.296;2022-12-07T05:50:20;97643.81;;;8.36;100.00
21869;BME280;11099;41.564;23.296;2022-12-07T05:52:54;97629.75;;;8.35;100.00
21869;BME280;11099;41.564;23.296;2022-12-07T06:04:47;97701.72;;;8.85;100.00
21869;BME280;11099;41.564;23.296;2022-12-07T06:10:22;97703.50;;;8.90;100.00
21869;BME280;11099;41.564;23.296;2022-12-07T06:12:51;97632.09;;;8.56;100.00
21869;BME280;11099;41.564;23.296;2022-12-07T06:15:26;97660.09;;;8.48;100.00
21869;BME280;11099;41.564;23.296;2022-12-07T06:17:56;97712.41;;;8.80;100.00
21869;BME280;11099;41.564;23.296;2022-12-07T06:20:28;97707.75;;;8.91;100.00
21869;BME280;11099;41.564;23.296;2022-12-07T06:23:15;97656.56;;;8.53;100.00
21869;BME280;11099;41.564;23.296;2022-12-07T06:25:48;97714.63;;;8.73;100.00
21869;BME280;11099;41.564;23.296;2022-12-07T06:28:18;97716.34;;;9.02;100.00
21869;BME280;11099;41.564;23.296;2022-12-07T06:31:00;97722.91;;;9.23;100.00
21869;BME280;11099;41.564;23.296;2022-12-07T06:33:29;97684.41;;;9.20;100.00
21869;BME280;11099;41.564;23.296;2022-12-07T06:35:55;97679.88;;;9.21;100.00
21869;BME280;11099;41.564;23.296;2022-12-07T06:38:20;97701.78;;;9.45;100.00
21869;BME280;11099;41.564;23.296;2022-12-07T06:40:46;97715.06;;;9.45;100.00
21869;BME280;11099;41.564;23.296;2022-12-07T06:43:11;97730.44;;;9.62;100.00
21869;BME280;11099;41.564;23.296;2022-12-07T06:45:37;97737.72;;;9.70;100.00
21869;BME280;11099;41.564;23.296;2022-12-07T06:48:02;97717.69;;;9.32;100.00
21869;BME280;11099;41.564;23.296;2022-12-07T06:50:28;97711.75;;;9.07;100.00
21869;BME280;11099;41.564;23.296;2022-12-07T06:52:54;97723.09;;;9.27;100.00
21869;BME280;11099;41.564;23.296;2022-12-07T06:55:19;97699.00;;;9.23;100.00
21869;BME280;11099;41.564;23.296;2022-12-07T06:57:45;97719.34;;;9.28;100.00
21869;BME280;11099;41.564;23.296;2022-12-07T07:00:11;97732.47;;;9.38;100.00
21869;BME280;11099;41.564;23.296;2022-12-07T07:02:37;97725.88;;;9.49;100.00
21869;BME280;11099;41.564;23.296;2022-12-07T07:05:03;97684.97;;;9.17;100.00
21869;BME280;11099;41.564;23.296;2022-12-07T07:07:28;97705.31;;;9.41;100.00
21869;BME280;11099;41.564;23.296;2022-12-07T07:09:54;97731.31;;;9.58;100.00
21869;BME280;11099;41.564;23.296;2022-12-07T07:12:20;97698.84;;;9.74;100.00
21869;BME280;11099;41.564;23.296;2022-12-07T07:14:45;97685.34;;;9.57;100.00
21869;BME280;11099;41.564;23.296;2022-12-07T07:17:11;97702.88;;;9.86;100.00
21869;BME280;11099;41.564;23.296;2022-12-07T07:19:36;97729.38;;;10.18;100.00
21869;BME280;11099;41.564;23.296;2022-12-07T07:22:03;97701.88;;;9.82;100.00
21869;BME280;11099;41.564;23.296;2022-12-07T07:24:28;97735.59;;;10.00;100.00
21869;BME280;11099;41.564;23.296;2022-12-07T07:26:54;97713.72;;;9.89;100.00
21869;BME280;11099;41.564;23.296;2022-12-07T07:29:20;97728.75;;;10.21;100.00
21869;BME280;11099;41.564;23.296;2022-12-07T07:31:45;97728.56;;;10.45;100.00
21869;BME280;11099;41.564;23.296;2022-12-07T07:34:11;97733.47;;;10.52;100.00
21869;BME280;11099;41.564;23.296;2022-12-07T07:36:36;97690.91;;;10.38;100.00
21869;BME280;11099;41.564;23.296;2022-12-07T07:39:02;97709.00;;;10.86;100.00
21869;BME280;11099;41.564;23.296;2022-12-07T07:41:27;97736.81;;;11.16;100.00
21869;BME280;11099;41.564;23.296;2022-12-07T07:43:53;97722.81;;;11.11;100.00
21869;BME280;11099;41.564;23.296;2022-12-07T07:46:18;97717.66;;;11.14;100.00
21869;BME280;11099;41.564;23.296;2022-12-07T07:48:44;97697.13;;;11.15;100.00
21869;BME280;11099;41.564;23.296;2022-12-07T07:51:09;97730.56;;;11.52;100.00
21869;BME280;11099;41.564;23.296;2022-12-07T07:53:35;97711.72;;;11.17;100.00
21869;BME280;11099;41.564;23.296;2022-12-07T07:56:00;97699.13;;;11.09;100.00
21869;BME280;11099;41.564;23.296;2022-12-07T07:58:27;97741.84;;;11.49;100.00
21869;BME280;11099;41.564;23.296;2022-12-07T08:00:52;97729.59;;;11.48;100.00
21869;BME280;11099;41.564;23.296;2022-12-07T08:03:18;97722.53;;;11.43;100.00
21869;BME280;11099;41.564;23.296;2022-12-07T08:05:44;97737.34;;;11.27;100.00
21869;BME280;11099;41.564;23.296;2022-12-07T08:08:09;97692.31;;;10.94;100.00
21869;BME280;11099;41.564;23.296;2022-12-07T08:10:35;97711.97;;;10.85;100.00
21869;BME280;11099;41.564;23.296;2022-12-07T08:13:02;97716.66;;;10.65;100.00
21869;BME280;11099;41.564;23.296;2022-12-07T08:15:38;97736.94;;;10.75;100.00
21869;BME280;11099;41.564;23.296;2022-12-07T08:18:04;97708.88;;;10.91;100.00
21869;BME280;11099;41.564;23.296;2022-12-07T08:20:31;97729.16;;;11.23;100.00
21869;BME280;11099;41.564;23.296;2022-12-07T08:22:57;97690.34;;;10.86;100.00
21869;BME280;11099;41.564;23.296;2022-12-07T08:25:23;97717.78;;;11.09;100.00
21869;BME280;11099;41.564;23.296;2022-12-07T08:27:49;97721.88;;;11.15;100.00
21869;BME280;11099;41.564;23.296;2022-12-07T08:30:14;97696.22;;;11.50;100.00
21869;BME280;11099;41.564;23.296;2022-12-07T08:32:40;97718.22;;;11.65;100.00
21869;BME280;11099;41.564;23.296;2022-12-07T08:35:06;97690.06;;;11.41;100.00
21869;BME280;11099;41.564;23.296;2022-12-07T08:37:32;97699.47;;;11.78;100.00
21869;BME280;11099;41.564;23.296;2022-12-07T08:39:58;97716.25;;;12.10;100.00
21869;BME280;11099;41.564;23.296;2022-12-07T08:42:23;97710.06;;;11.92;100.00
21869;BME280;11099;41.564;23.296;2022-12-07T08:44:53;97697.66;;;11.96;100.00
21869;BME280;11099;41.564;23.296;2022-12-07T08:49:54;97724.47;;;12.57;100.00
21869;BME280;11099;41.564;23.296;2022-12-07T08:52:20;97709.25;;;12.49;100.00
21869;BME280;11099;41.564;23.296;2022-12-07T08:54:46;97719.44;;;12.38;100.00
21869;BME280;11099;41.564;23.296;2022-12-07T08:57:12;97707.47;;;12.35;100.00
21869;BME280;11099;41.564;23.296;2022-12-07T08:59:37;97699.63;;;12.22;100.00
21869;BME280;11099;41.564;23.296;2022-12-07T09:02:05;97722.56;;;12.31;100.00
21869;BME280;11099;41.564;23.296;2022-12-07T09:04:37;97676.06;;;11.67;100.00
21869;BME280;11099;41.564;23.296;2022-12-07T09:07:07;97685.63;;;11.99;100.00
21869;BME280;11099;41.564;23.296;2022-12-07T09:09:33;97719.28;;;12.52;100.00
21869;BME280;11099;41.564;23.296;2022-12-07T09:11:59;97615.75;;;11.97;100.00
21869;BME280;11099;41.564;23.296;2022-12-07T09:14:26;97658.66;;;12.35;100.00
21869;BME280;11099;41.564;23.296;2022-12-07T09:17:04;97674.03;;;12.21;100.00
21869;BME280;11099;41.564;23.296;2022-12-07T09:19:32;97708.28;;;12.27;100.00
21869;BME280;11099;41.564;23.296;2022-12-07T09:22:10;97710.94;;;12.36;100.00
21869;BME280;11099;41.564;23.296;2022-12-07T09:24:38;97607.31;;;12.12;100.00
21869;BME280;11099;41.564;23.296;2022-12-07T09:27:04;97670.53;;;13.07;100.00
21869;BME280;11099;41.564;23.296;2022-12-07T09:29:33;97697.25;;;13.41;100.00
21869;BME280;11099;41.564;23.296;2022-12-07T09:32:03;97631.22;;;13.16;100.00
21869;BME280;11099;41.564;23.296;2022-12-07T09:34:36;97635.88;;;13.45;100.00
21869;BME280;11099;41.564;23.296;2022-12-07T09:37:18;97685.25;;;13.86;100.00
21869;BME280;11099;41.564;23.296;2022-12-07T09:56:40;97660.66;;;12.99;100.00
21869;BME280;11099;41.564;23.296;2022-12-07T10:13:01;97645.47;;;13.46;100.00
21869;BME280;11099;41.564;23.296;2022-12-07T10:28:36;97555.94;;;13.73;100.00
21869;BME280;11099;41.564;23.296;2022-12-07T10:31:17;97547.03;;;13.69;100.00
21869;BME280;11099;41.564;23.296;2022-12-07T10:34:01;97541.94;;;14.18;97.56
21869;BME280;11099;41.564;23.296;2022-12-07T10:36:53;97619.88;;;14.79;98.16
21869;BME280;11099;41.564;23.296;2022-12-07T11:16:02;97545.00;;;15.19;92.82
21869;BME280;11099;41.564;23.296;2022-12-07T11:24:21;97545.66;;;15.65;92.85
21869;BME280;11099;41.564;23.296;2022-12-07T11:37:37;97530.47;;;15.20;94.37
21869;BME280;11099;41.564;23.296;2022-12-07T11:42:52;97516.84;;;15.25;94.36
21869;BME280;11099;41.564;23.296;2022-12-07T11:45:27;97520.09;;;15.19;95.31
21869;BME280;11099;41.564;23.296;2022-12-07T11:48:02;97517.28;;;15.15;96.61
21869;BME280;11099;41.564;23.296;2022-12-07T11:50:45;97509.66;;;14.93;98.10
21869;BME280;11099;41.564;23.296;2022-12-07T11:53:26;97515.03;;;14.93;98.54
21869;BME280;11099;41.564;23.296;2022-12-07T11:56:12;97482.28;;;14.51;99.09
21869;BME280;11099;41.564;23.296;2022-12-07T12:01:26;97503.69;;;14.17;100.00
21869;BME280;11099;41.564;23.296;2022-12-07T12:04:26;97505.03;;;14.23;100.00
21869;BME280;11099;41.564;23.296;2022-12-07T12:06:58;97488.59;;;14.13;100.00
21869;BME280;11099;41.564;23.296;2022-12-07T12:18:53;97474.56;;;14.28;100.00
21869;BME280;11099;41.564;23.296;2022-12-07T12:20:59;97435.66;;;13.64;100.00
21869;BME280;11099;41.564;23.296;2022-12-07T12:26:24;97383.84;;;13.27;100.00
21869;BME280;11099;41.564;23.296;2022-12-07T12:29:00;97473.47;;;13.96;100.00
21869;BME280;11099;41.564;23.296;2022-12-07T12:32:24;97471.72;;;13.79;100.00
21869;BME280;11099;41.564;23.296;2022-12-07T12:35:20;97420.72;;;13.42;100.00
21869;BME280;11099;41.564;23.296;2022-12-07T12:37:53;97478.69;;;13.51;100.00
21869;BME280;11099;41.564;23.296;2022-12-07T12:43:38;97465.94;;;12.97;100.00
21869;BME280;11099;41.564;23.296;2022-12-07T13:08:17;97467.78;;;13.56;100.00
21869;BME280;11099;41.564;23.296;2022-12-07T13:10:39;97471.00;;;13.70;100.00
21869;BME280;11099;41.564;23.296;2022-12-07T13:34:40;97458.09;;;14.84;100.00
21869;BME280;11099;41.564;23.296;2022-12-07T13:50:26;97391.31;;;14.09;100.00
21869;BME280;11099;41.564;23.296;2022-12-07T14:01:16;97412.59;;;14.05;100.00
21869;BME280;11099;41.564;23.296;2022-12-07T14:04:19;97451.16;;;13.92;100.00
21869;BME280;11099;41.564;23.296;2022-12-07T14:06:50;97385.50;;;13.11;100.00
21869;BME280;11099;41.564;23.296;2022-12-07T14:09:29;97466.16;;;13.42;100.00
21869;BME280;11099;41.564;23.296;2022-12-07T14:12:06;97405.47;;;12.84;100.00
21869;BME280;11099;41.564;23.296;2022-12-07T14:14:35;97463.09;;;13.02;100.00
21869;BME280;11099;41.564;23.296;2022-12-07T14:17:18;97388.75;;;12.28;100.00
21869;BME280;11099;41.564;23.296;2022-12-07T14:19:56;97481.22;;;12.79;100.00
21869;BME280;11099;41.564;23.296;2022-12-07T14:25:18;97464.50;;;12.61;100.00
21869;BME280;11099;41.564;23.296;2022-12-07T14:27:57;97442.41;;;12.44;100.00
21869;BME280;11099;41.564;23.296;2022-12-07T14:30:32;97468.97;;;12.40;100.00
21869;BME280;11099;41.564;23.296;2022-12-07T14:33:04;97426.63;;;12.21;100.00
21869;BME280;11099;41.564;23.296;2022-12-07T14:35:35;97423.22;;;11.77;100.00
21869;BME280;11099;41.564;23.296;2022-12-07T14:38:10;97369.75;;;11.39;100.00
21869;BME280;11099;41.564;23.296;2022-12-07T14:40:47;97365.97;;;11.31;100.00
21869;BME280;11099;41.564;23.296;2022-12-07T14:43:17;97460.28;;;11.88;100.00
21869;BME280;11099;41.564;23.296;2022-12-07T14:45:43;97404.72;;;11.46;100.00
21869;BME280;11099;41.564;23.296;2022-12-07T14:48:13;97414.91;;;11.53;100.00
21869;BME280;11099;41.564;23.296;2022-12-07T14:50:43;97401.59;;;11.44;100.00
21869;BME280;11099;41.564;23.296;2022-12-07T14:53:13;97426.66;;;11.52;100.00
21869;BME280;11099;41.564;23.296;2022-12-07T14:55:40;97368.78;;;11.09;100.00
21869;BME280;11099;41.564;23.296;2022-12-07T14:58:05;97413.34;;;11.43;100.00
21869;BME280;11099;41.564;23.296;2022-12-07T15:00:31;97419.78;;;11.51;100.00
21869;BME280;11099;41.564;23.296;2022-12-07T15:02:57;97458.66;;;11.78;100.00
21869;BME280;11099;41.564;23.296;2022-12-07T15:05:22;97411.28;;;11.40;100.00
21869;BME280;11099;41.564;23.296;2022-12-07T15:07:50;97450.50;;;11.74;100.00
21869;BME280;11099;41.564;23.296;2022-12-07T15:10:22;97467.16;;;11.71;100.00
21869;BME280;11099;41.564;23.296;2022-12-07T15:12:48;97464.94;;;11.73;100.00
21869;BME280;11099;41.564;23.296;2022-12-07T15:15:14;97452.22;;;11.53;100.00
21869;BME280;11099;41.564;23.296;2022-12-07T15:17:40;97446.72;;;11.41;100.00
21869;BME280;11099;41.564;23.296;2022-12-07T15:20:10;97475.75;;;11.68;100.00
21869;BME280;11099;41.564;23.296;2022-12-07T15:22:36;97446.44;;;11.59;100.00
21869;BME280;11099;41.564;23.296;2022-12-07T15:25:02;97439.06;;;11.56;100.00
21869;BME280;11099;41.564;23.296;2022-12-07T15:30:36;97418.34;;;11.27;100.00
21869;BME280;11099;41.564;23.296;2022-12-07T15:33:41;97355.59;;;10.87;100.00
21869;BME280;11099;41.564;23.296;2022-12-07T15:36:15;97464.78;;;11.44;100.00
21869;BME280;11099;41.564;23.296;2022-12-07T15:38:43;97436.03;;;11.23;100.00
21869;BME280;11099;41.564;23.296;2022-12-07T15:41:13;97415.03;;;11.04;100.00
21869;BME280;11099;41.564;23.296;2022-12-07T15:43:43;97479.66;;;11.45;100.00
21869;BME280;11099;41.564;23.296;2022-12-07T15:46:37;97423.66;;;11.10;100.00
21869;BME280;11099;41.564;23.296;2022-12-07T15:49:18;97460.81;;;11.24;100.00
21869;BME280;11099;41.564;23.296;2022-12-07T15:52:04;97470.72;;;11.32;100.00
21869;BME280;11099;41.564;23.296;2022-12-07T15:54:33;97405.41;;;10.77;100.00
21869;BME280;11099;41.564;23.296;2022-12-07T15:57:06;97404.00;;;10.80;100.00
21869;BME280;11099;41.564;23.296;2022-12-07T15:59:38;97465.38;;;11.23;100.00
21869;BME280;11099;41.564;23.296;2022-12-07T16:02:06;97399.13;;;10.73;100.00
21869;BME280;11099;41.564;23.296;2022-12-07T16:04:42;97500.06;;;11.58;100.00
21869;BME280;11099;41.564;23.296;2022-12-07T16:07:19;97428.50;;;11.08;100.00
21869;BME280;11099;41.564;23.296;2022-12-07T16:09:49;97459.56;;;11.30;100.00
21869;BME280;11099;41.564;23.296;2022-12-07T16:12:15;97508.34;;;11.48;100.00
21869;BME280;11099;41.564;23.296;2022-12-07T16:14:47;97493.31;;;11.43;100.00
21869;BME280;11099;41.564;23.296;2022-12-07T16:17:21;97456.25;;;11.16;100.00
21869;BME280;11099;41.564;23.296;2022-12-07T16:19:50;97489.69;;;11.39;100.00
21869;BME280;11099;41.564;23.296;2022-12-07T16:22:18;97510.25;;;11.65;100.00
21869;BME280;11099;41.564;23.296;2022-12-07T16:24:50;97512.94;;;11.73;100.00
21869;BME280;11099;41.564;23.296;2022-12-07T16:27:29;97456.44;;;11.28;100.00
21869;BME280;11099;41.564;23.296;2022-12-07T16:29:57;97494.59;;;11.54;100.00
21869;BME280;11099;41.564;23.296;2022-12-07T16:32:39;97492.06;;;11.58;100.00
21869;BME280;11099;41.564;23.296;2022-12-07T16:35:12;97521.41;;;11.75;100.00
21869;BME280;11099;41.564;23.296;2022-12-07T16:37:42;97513.41;;;11.75;100.00
21869;BME280;11099;41.564;23.296;2022-12-07T16:40:27;97508.25;;;11.70;100.00
21869;BME280;11099;41.564;23.296;2022-12-07T16:43:03;97488.16;;;11.55;100.00
21869;BME280;11099;41.564;23.296;2022-12-07T16:45:48;97473.69;;;11.48;100.00
21869;BME280;11099;41.564;23.296;2022-12-07T16:48:15;97503.69;;;11.71;100.00
21869;BME280;11099;41.564;23.296;2022-12-07T16:53:27;97459.25;;;11.31;100.00
21869;BME280;11099;41.564;23.296;2022-12-07T16:55:56;97437.28;;;11.26;100.00
21869;BME280;11099;41.564;23.296;2022-12-07T16:58:30;97467.88;;;11.37;100.00
21869;BME280;11099;41.564;23.296;2022-12-07T17:01:11;97440.78;;;11.26;100.00
21869;BME280;11099;41.564;23.296;2022-12-07T17:15:31;97528.66;;;11.83;100.00
21869;BME280;11099;41.564;23.296;2022-12-07T17:18:03;97434.13;;;11.06;100.00
21869;BME280;11099;41.564;23.296;2022-12-07T17:20:34;97498.81;;;11.55;100.00
21869;BME280;11099;41.564;23.296;2022-12-07T18:01:51;97507.59;;;11.56;100.00
21869;BME280;11099;41.564;23.296;2022-12-07T18:04:21;97502.38;;;11.42;100.00
21869;BME280;11099;41.564;23.296;2022-12-07T18:07:16;97557.03;;;11.79;100.00
21869;BME280;11099;41.564;23.296;2022-12-07T18:10:10;97554.88;;;11.90;100.00
21869;BME280;11099;41.564;23.296;2022-12-07T18:12:57;97466.47;;;11.22;100.00
21869;BME280;11099;41.564;23.296;2022-12-07T18:15:42;97498.00;;;11.38;100.00
21869;BME280;11099;41.564;23.296;2022-12-07T18:18:13;97551.06;;;11.74;100.00
21869;BME280;11099;41.564;23.296;2022-12-07T18:20:49;97524.81;;;11.41;100.00
21869;BME280;11099;41.564;23.296;2022-12-07T18:23:24;97550.09;;;11.70;100.00
21869;BME280;11099;41.564;23.296;2022-12-07T18:28:46;97554.94;;;11.59;100.00
21869;BME280;11099;41.564;23.296;2022-12-07T18:44:14;97564.69;;;11.64;100.00
21869;BME280;11099;41.564;23.296;2022-12-07T18:47:18;97556.53;;;11.69;100.00
21869;BME280;11099;41.564;23.296;2022-12-07T18:49:56;97473.81;;;11.17;100.00
21869;BME280;11099;41.564;23.296;2022-12-07T18:52:28;97557.81;;;11.80;100.00
21869;BME280;11099;41.564;23.296;2022-12-07T18:55:14;97529.03;;;11.42;100.00
21869;BME280;11099;41.564;23.296;2022-12-07T19:49:04;97448.28;;;11.24;100.00
21869;BME280;11099;41.564;23.296;2022-12-07T20:02:11;97497.06;;;11.51;100.00
21869;BME280;11099;41.564;23.296;2022-12-07T20:05:05;97559.72;;;11.97;100.00
21869;BME280;11099;41.564;23.296;2022-12-07T20:18:13;97565.28;;;11.43;100.00
21869;BME280;11099;41.564;23.296;2022-12-07T20:20:43;97517.84;;;11.14;100.00
21869;BME280;11099;41.564;23.296;2022-12-07T20:23:26;97500.97;;;10.88;100.00
21869;BME280;11099;41.564;23.296;2022-12-07T20:45:25;97594.59;;;12.00;100.00
21869;BME280;11099;41.564;23.296;2022-12-07T21:39:54;97546.13;;;10.62;100.00
21869;BME280;11099;41.564;23.296;2022-12-07T21:42:32;97546.88;;;10.85;100.00
21869;BME280;11099;41.564;23.296;2022-12-07T21:45:09;97519.91;;;10.77;100.00
21869;BME280;11099;41.564;23.296;2022-12-07T21:47:44;97598.72;;;11.18;100.00
21869;BME280;11099;41.564;23.296;2022-12-07T21:50:20;97534.28;;;10.45;100.00
21869;BME280;11099;41.564;23.296;2022-12-07T21:52:54;97604.28;;;10.99;100.00
21869;BME280;11099;41.564;23.296;2022-12-07T21:55:22;97526.78;;;10.78;100.00
21869;BME280;11099;41.564;23.296;2022-12-07T22:13:47;97502.94;;;9.97;100.00
21869;BME280;11099;41.564;23.296;2022-12-07T22:16:38;97521.50;;;10.11;100.00
21869;BME280;11099;41.564;23.296;2022-12-07T22:19:25;97574.22;;;10.76;100.00
21869;BME280;11099;41.564;23.296;2022-12-07T22:21:58;97595.66;;;10.94;100.00
21869;BME280;11099;41.564;23.296;2022-12-07T22:24:49;97605.94;;;10.64;100.00
21869;BME280;11099;41.564;23.296;2022-12-07T22:27:24;97594.38;;;10.69;100.00
21869;BME280;11099;41.564;23.296;2022-12-07T22:29:56;97608.19;;;11.02;100.00
21869;BME280;11099;41.564;23.296;2022-12-07T22:32:29;97607.09;;;10.72;100.00
21869;BME280;11099;41.564;23.296;2022-12-07T22:35:02;97613.47;;;10.62;100.00
21869;BME280;11099;41.564;23.296;2022-12-07T22:37:34;97558.28;;;10.32;100.00
21869;BME280;11099;41.564;23.296;2022-12-07T22:40:08;97608.38;;;11.05;100.00
21869;BME280;11099;41.564;23.296;2022-12-07T22:42:45;97548.22;;;10.73;100.00
21869;BME280;11099;41.564;23.296;2022-12-07T22:45:20;97553.03;;;10.94;100.00
21869;BME280;11099;41.564;23.296;2022-12-07T22:48:13;97601.72;;;11.25;100.00
21869;BME280;11099;41.564;23.296;2022-12-07T22:51:06;97614.56;;;11.23;100.00
21869;BME280;11099;41.564;23.296;2022-12-07T22:53:59;97611.00;;;11.28;100.00
21869;BME280;11099;41.564;23.296;2022-12-07T22:56:31;97610.28;;;11.53;100.00
21869;BME280;11099;41.564;23.296;2022-12-07T22:59:10;97517.06;;;10.74;100.00
21869;BME280;11099;41.564;23.296;2022-12-07T23:01:43;97537.06;;;10.94;100.00
21869;BME280;11099;41.564;23.296;2022-12-07T23:04:23;97516.03;;;10.92;100.00
21869;BME280;11099;41.564;23.296;2022-12-07T23:06:51;97604.25;;;11.30;100.00
21869;BME280;11099;41.564;23.296;2022-12-07T23:09:27;97604.44;;;11.03;100.00
21869;BME280;11099;41.564;23.296;2022-12-07T23:12:01;97526.59;;;10.75;100.00
21869;BME280;11099;41.564;23.296;2022-12-07T23:14:57;97613.25;;;11.43;100.00
21869;BME280;11099;41.564;23.296;2022-12-07T23:17:30;97531.47;;;11.13;100.00
21869;BME280;11099;41.564;23.296;2022-12-07T23:20:05;97539.59;;;11.07;100.00
21869;BME280;11099;41.564;23.296;2022-12-07T23:22:51;97536.41;;;10.66;100.00
21869;BME280;11099;41.564;23.296;2022-12-07T23:25:18;97525.41;;;10.50;100.00
21869;BME280;11099;41.564;23.296;2022-12-07T23:27:50;97578.34;;;10.82;100.00
21869;BME280;11099;41.564;23.296;2022-12-07T23:30:20;97624.47;;;11.31;100.00
21869;BME280;11099;41.564;23.296;2022-12-07T23:35:36;97556.09;;;11.18;100.00
21869;BME280;11099;41.564;23.296;2022-12-07T23:38:10;97507.09;;;10.88;100.00
21869;BME280;11099;41.564;23.296;2022-12-07T23:51:27;97591.47;;;11.58;100.00
21869;BME280;11099;41.564;23.296;2022-12-07T23:54:24;97540.00;;;11.41;100.00
21869;BME280;11099;41.564;23.296;2022-12-07T23:56:55;97537.09;;;11.11;100.00
21869;BME280;11099;41.564;23.296;2022-12-07T23:59:45;97604.50;;;11.51;100.00
